createdAt,value
2023-01-21T00:02:21.239Z,28.13
2023-01-21T00:04:49.956Z,35.47
2023-01-21T00:07:19.021Z,32.87
2023-01-21T00:09:47.691Z,32.63
2023-01-21T00:12:18.096Z,32.50
2023-01-21T00:14:46.417Z,32.77
2023-01-21T00:17:15.156Z,29.93
2023-01-21T00:19:43.884Z,31.67
2023-01-21T00:22:12.666Z,31.40
2023-01-21T00:24:41.242Z,30.60
2023-01-21T00:27:09.857Z,32.63
2023-01-21T00:29:39.571Z,29.27
2023-01-21T00:32:08.228Z,36.57
2023-01-21T00:34:36.950Z,33.37
2023-01-21T00:37:05.813Z,32.13
2023-01-21T00:39:34.693Z,30.90
2023-01-21T00:42:04.548Z,32.93
2023-01-21T00:44:32.909Z,31.50
2023-01-21T00:47:02.907Z,34.43
2023-01-21T00:49:31.636Z,33.33
2023-01-21T00:52:00.415Z,32.57
2023-01-21T00:54:31.306Z,33.33
2023-01-21T00:57:00.057Z,34.53
2023-01-21T00:59:28.666Z,37.63
2023-01-21T01:01:57.705Z,32.70
2023-01-21T01:04:27.725Z,33.17
2023-01-21T01:06:57.321Z,36.30
2023-01-21T01:09:26.021Z,28.50
2023-01-21T01:11:55.138Z,35.20
2023-01-21T01:14:24.141Z,34.10
2023-01-21T01:16:52.825Z,29.63
2023-01-21T01:19:21.657Z,29.57
2023-01-21T01:21:52.323Z,32.77
2023-01-21T01:24:20.770Z,25.37
2023-01-21T01:26:49.212Z,31.03
2023-01-21T01:29:18.665Z,29.53
2023-01-21T01:31:47.404Z,29.30
2023-01-21T01:34:16.110Z,30.93
2023-01-21T01:36:44.801Z,27.63
2023-01-21T01:39:14.584Z,28.57
2023-01-21T01:41:43.496Z,28.40
2023-01-21T01:44:45.540Z,27.70
2023-01-21T01:47:14.569Z,26.43
2023-01-21T01:49:44.141Z,25.97
2023-01-21T01:52:16.039Z,25.63
2023-01-21T01:54:50.185Z,27.73
2023-01-21T01:57:24.814Z,26.90
2023-01-21T01:59:53.406Z,26.80
2023-01-21T02:02:22.463Z,33.13
2023-01-21T02:04:56.861Z,28.20
2023-01-21T02:07:29.999Z,27.50
2023-01-21T02:10:03.890Z,27.50
2023-01-21T02:12:32.619Z,25.33
2023-01-21T02:15:01.441Z,28.73
2023-01-21T02:17:52.278Z,27.93
2023-01-21T02:21:16.821Z,24.27
2023-01-21T02:24:36.275Z,25.20
2023-01-21T02:27:40.502Z,25.37
2023-01-21T02:30:52.203Z,24.73
2023-01-21T02:33:39.058Z,24.97
2023-01-21T02:36:41.783Z,25.57
2023-01-21T02:39:21.378Z,24.07
2023-01-21T02:42:06.323Z,25.53
2023-01-21T02:44:42.179Z,27.20
2023-01-21T02:47:25.119Z,23.97
2023-01-21T02:50:02.203Z,28.50
2023-01-21T02:52:31.432Z,27.50
2023-01-21T02:55:02.440Z,28.97
2023-01-21T02:57:41.236Z,25.63
2023-01-21T03:00:18.104Z,28.27
2023-01-21T03:03:44.872Z,28.57
2023-01-21T03:06:42.409Z,27.10
2023-01-21T03:09:24.751Z,23.43
2023-01-21T03:12:10.111Z,26.83
2023-01-21T03:15:05.686Z,28.50
2023-01-21T03:17:43.352Z,27.70
2023-01-21T03:20:20.776Z,28.60
2023-01-21T03:22:59.362Z,27.80
2023-01-21T03:25:32.810Z,30.93
2023-01-21T03:28:04.923Z,30.00
2023-01-21T03:30:36.187Z,27.03
2023-01-21T03:33:06.303Z,28.20
2023-01-21T03:35:38.781Z,28.60
2023-01-21T03:38:17.682Z,29.67
2023-01-21T03:41:00.837Z,28.97
2023-01-21T03:43:29.597Z,28.20
2023-01-21T03:46:08.415Z,27.87
2023-01-21T03:48:46.271Z,27.37
2023-01-21T03:51:21.756Z,27.00
2023-01-21T03:53:59.468Z,26.70
2023-01-21T03:56:29.580Z,25.47
2023-01-21T03:58:58.666Z,32.20
2023-01-21T04:01:27.295Z,30.83
2023-01-21T04:03:55.939Z,27.60
2023-01-21T04:06:25.066Z,27.23
2023-01-21T04:08:55.113Z,26.93
2023-01-21T04:11:24.001Z,26.27
2023-01-21T04:13:52.783Z,26.60
2023-01-21T04:16:21.681Z,27.80
2023-01-21T04:18:54.053Z,28.40
2023-01-21T04:21:22.707Z,30.83
2023-01-21T04:23:51.350Z,24.87
2023-01-21T04:26:21.431Z,28.77
2023-01-21T04:28:50.303Z,26.90
2023-01-21T04:31:19.378Z,26.93
2023-01-21T04:33:48.204Z,30.63
2023-01-21T04:36:16.814Z,29.43
2023-01-21T04:38:45.176Z,30.87
2023-01-21T04:41:13.557Z,27.43
2023-01-21T04:43:43.555Z,30.23
2023-01-21T04:46:12.287Z,24.73
2023-01-21T04:48:41.732Z,30.23
2023-01-21T04:51:10.611Z,23.80
2023-01-21T04:53:39.402Z,28.40
2023-01-21T04:56:08.597Z,27.33
2023-01-21T04:58:37.214Z,25.83
2023-01-21T05:01:07.299Z,27.03
2023-01-21T05:03:35.820Z,27.30
2023-01-21T05:06:04.610Z,27.47
2023-01-21T05:08:33.095Z,27.93
2023-01-21T05:11:01.856Z,29.17
2023-01-21T05:13:34.005Z,28.43
2023-01-21T05:16:09.894Z,31.40
2023-01-21T05:18:38.828Z,28.30
2023-01-21T05:21:08.628Z,30.37
2023-01-21T05:23:37.278Z,28.30
2023-01-21T05:26:06.156Z,28.93
2023-01-21T05:28:34.960Z,31.33
2023-01-21T05:31:04.517Z,37.57
2023-01-21T05:33:38.103Z,28.87
2023-01-21T05:36:07.759Z,28.83
2023-01-21T05:38:37.194Z,31.07
2023-01-21T05:41:06.553Z,28.70
2023-01-21T05:43:35.646Z,29.00
2023-01-21T05:46:04.447Z,25.50
2023-01-21T05:48:34.543Z,29.43
2023-01-21T05:51:03.254Z,27.13
2023-01-21T05:53:32.153Z,34.20
2023-01-21T05:56:00.812Z,27.07
2023-01-21T05:58:29.554Z,28.67
2023-01-21T06:01:16.988Z,27.57
2023-01-21T06:03:52.322Z,30.83
2023-01-21T06:06:45.635Z,31.47
2023-01-21T06:09:22.337Z,29.97
2023-01-21T06:11:53.459Z,29.47
2023-01-21T06:14:35.577Z,27.83
2023-01-21T06:17:23.402Z,27.17
2023-01-21T06:19:53.658Z,33.43
2023-01-21T06:22:24.243Z,32.03
2023-01-21T06:24:52.941Z,33.77
2023-01-21T06:27:21.746Z,29.53
2023-01-21T06:29:50.746Z,26.87
2023-01-21T06:32:21.971Z,29.47
2023-01-21T06:34:56.502Z,33.63
2023-01-21T06:37:25.213Z,28.60
2023-01-21T06:40:00.023Z,32.17
2023-01-21T06:47:34.115Z,33.90
2023-01-21T07:22:53.425Z,30.23
2023-01-21T07:25:22.264Z,27.17
2023-01-21T07:27:51.009Z,35.33
2023-01-21T07:30:21.321Z,33.27
2023-01-21T07:32:50.131Z,28.13
2023-01-21T07:35:19.959Z,34.57
2023-01-21T07:37:48.851Z,33.13
2023-01-21T07:40:22.480Z,31.77
2023-01-21T07:42:54.709Z,32.93
2023-01-21T07:45:25.819Z,31.07
2023-01-21T07:47:54.681Z,31.43
2023-01-21T07:50:23.332Z,30.97
2023-01-21T07:52:53.742Z,32.57
2023-01-21T07:55:31.194Z,31.67
2023-01-21T07:58:01.149Z,26.57
2023-01-21T08:00:33.339Z,32.43
2023-01-21T08:03:02.007Z,30.10
2023-01-21T08:05:30.631Z,33.27
2023-01-21T08:07:59.919Z,29.93
2023-01-21T08:10:28.496Z,33.53
2023-01-21T08:12:57.159Z,35.80
2023-01-21T08:15:27.189Z,33.23
2023-01-21T08:17:56.613Z,33.23
2023-01-21T08:20:25.480Z,32.60
2023-01-21T08:22:54.554Z,28.47
2023-01-21T08:25:22.856Z,30.17
2023-01-21T08:27:51.504Z,32.40
2023-01-21T08:30:20.532Z,31.90
2023-01-21T08:32:50.638Z,28.17
2023-01-21T08:35:19.604Z,31.37
2023-01-21T08:37:48.202Z,28.00
2023-01-21T08:40:17.147Z,34.63
2023-01-21T08:42:49.328Z,32.87
2023-01-21T08:45:21.434Z,32.20
2023-01-21T08:47:51.165Z,32.83
2023-01-21T08:50:20.561Z,28.13
2023-01-21T08:52:53.509Z,30.10
2023-01-21T08:55:25.008Z,32.13
2023-01-21T08:57:54.658Z,32.57
2023-01-21T09:00:24.183Z,40.60
2023-01-21T09:02:55.773Z,38.43
2023-01-21T09:05:24.403Z,32.93
2023-01-21T09:07:53.935Z,29.93
2023-01-21T09:10:36.909Z,35.60
2023-01-21T09:13:06.469Z,32.03
2023-01-21T09:15:39.450Z,36.73
2023-01-21T09:18:09.737Z,30.90
2023-01-21T09:20:39.593Z,32.30
2023-01-21T09:23:24.406Z,25.40
2023-01-21T09:25:53.840Z,29.37
2023-01-21T09:28:24.405Z,29.43
2023-01-21T09:31:01.677Z,29.47
2023-01-21T09:33:33.143Z,29.33
2023-01-21T09:36:04.699Z,27.93
2023-01-21T09:38:33.594Z,29.33
2023-01-21T09:41:21.004Z,31.00
2023-01-21T09:43:54.793Z,21.70
2023-01-21T09:46:37.084Z,29.20
2023-01-21T09:49:16.169Z,27.10
2023-01-21T09:51:52.719Z,26.57
2023-01-21T09:54:29.716Z,26.77
2023-01-21T09:57:28.242Z,29.97
2023-01-21T10:00:29.019Z,30.17
2023-01-21T10:03:04.622Z,26.20
2023-01-21T10:06:09.860Z,27.63
2023-01-21T10:09:02.876Z,28.20
2023-01-21T10:11:51.304Z,26.47
2023-01-21T10:14:49.597Z,22.77
2023-01-21T10:17:31.597Z,32.03
2023-01-21T10:20:16.506Z,32.93
2023-01-21T10:22:55.559Z,24.90
2023-01-21T10:25:31.340Z,22.60
2023-01-21T10:28:05.373Z,28.90
2023-01-21T10:30:39.981Z,27.13
2023-01-21T10:33:26.611Z,26.73
2023-01-21T10:36:23.450Z,27.03
2023-01-21T10:39:05.674Z,27.13
2023-01-21T10:41:57.533Z,27.60
2023-01-21T10:44:37.594Z,28.50
2023-01-21T10:47:20.526Z,28.20
2023-01-21T10:50:00.909Z,24.47
2023-01-21T10:52:45.099Z,26.57
2023-01-21T10:55:37.096Z,27.27
2023-01-21T10:58:25.596Z,24.70
2023-01-21T11:00:56.303Z,27.20
2023-01-21T11:03:38.803Z,26.10
2023-01-21T11:06:11.286Z,26.07
2023-01-21T11:08:42.225Z,24.97
2023-01-21T11:11:13.756Z,28.53
2023-01-21T11:13:42.411Z,29.50
2023-01-21T11:16:15.900Z,25.80
2023-01-21T11:22:04.281Z,26.37
2023-01-21T11:24:42.721Z,22.60
2023-01-21T11:27:21.790Z,20.80
2023-01-21T11:29:51.460Z,20.87
2023-01-21T11:32:22.612Z,21.20
2023-01-21T11:34:53.281Z,21.47
2023-01-21T11:37:26.533Z,18.43
2023-01-21T11:39:58.688Z,17.73
2023-01-21T11:42:28.807Z,20.03
2023-01-21T11:45:01.396Z,18.17
2023-01-21T11:47:37.731Z,21.17
2023-01-21T11:50:16.167Z,18.57
2023-01-21T11:52:45.173Z,17.13
2023-01-21T11:55:24.205Z,18.00
2023-01-21T11:57:57.543Z,17.90
2023-01-21T12:00:28.477Z,20.43
2023-01-21T12:03:02.323Z,19.27
2023-01-21T12:05:36.294Z,15.87
2023-01-21T12:08:07.899Z,17.03
2023-01-21T12:10:44.051Z,17.63
2023-01-21T12:13:23.844Z,18.63
2023-01-21T12:16:19.889Z,19.83
2023-01-21T12:19:23.788Z,18.00
2023-01-21T12:22:10.871Z,22.03
2023-01-21T12:25:10.864Z,16.73
2023-01-21T12:27:57.370Z,17.43
2023-01-21T12:30:36.187Z,15.60
2023-01-21T12:33:17.083Z,18.13
2023-01-21T12:35:51.634Z,17.50
2023-01-21T12:38:25.966Z,16.17
2023-01-21T12:41:02.324Z,16.70
2023-01-21T12:43:36.423Z,17.60
2023-01-21T12:46:17.423Z,15.60
2023-01-21T12:48:53.472Z,18.77
2023-01-21T12:51:29.168Z,16.37
2023-01-21T12:54:10.825Z,21.43
2023-01-21T12:56:46.682Z,17.80
2023-01-21T12:59:20.885Z,20.03
2023-01-21T13:02:00.131Z,16.20
2023-01-21T13:04:45.903Z,15.33
2023-01-21T13:07:31.127Z,16.47
2023-01-21T13:10:15.077Z,16.70
2023-01-21T13:12:52.423Z,16.90
2023-01-21T13:15:24.953Z,15.83
2023-01-21T13:18:01.797Z,16.97
2023-01-21T13:20:35.348Z,15.67
2023-01-21T13:23:16.064Z,18.70
2023-01-21T13:25:56.318Z,13.57
2023-01-21T13:28:36.596Z,18.43
2023-01-21T13:31:19.337Z,15.60
2023-01-21T13:33:56.819Z,15.57
2023-01-21T13:36:51.738Z,17.10
2023-01-21T13:39:33.406Z,34.07
2023-01-21T13:42:28.881Z,15.67
2023-01-21T13:45:24.482Z,57.07
2023-01-21T13:48:18.110Z,24.57
2023-01-21T13:51:07.883Z,63.60
2023-01-21T13:54:05.064Z,30.97
2023-01-21T13:57:10.103Z,20.03
2023-01-21T13:59:46.885Z,20.47
2023-01-21T14:02:26.905Z,16.93
2023-01-21T14:05:05.234Z,15.37
2023-01-21T14:07:42.535Z,15.03
2023-01-21T14:10:23.332Z,24.20
2023-01-21T14:13:16.653Z,21.80
2023-01-21T14:16:04.606Z,19.67
2023-01-21T14:18:51.913Z,12.60
2023-01-21T14:21:46.595Z,15.30
2023-01-21T14:24:43.009Z,16.60
2023-01-21T14:27:25.623Z,14.53
2023-01-21T14:30:04.637Z,12.40
2023-01-21T14:32:42.733Z,15.27
2023-01-21T14:35:24.308Z,11.43
2023-01-21T14:38:11.382Z,11.97
2023-01-21T14:40:49.987Z,12.27
2023-01-21T14:43:41.180Z,12.97
2023-01-21T14:49:10.504Z,12.10
2023-01-21T14:51:45.574Z,12.67
2023-01-21T14:54:18.183Z,12.83
2023-01-21T14:56:56.892Z,12.97
2023-01-21T14:59:35.955Z,13.07
2023-01-21T15:02:24.622Z,13.17
2023-01-21T15:04:57.740Z,13.70
2023-01-21T15:07:35.272Z,12.93
2023-01-21T15:10:15.839Z,15.27
2023-01-21T15:12:53.615Z,33.10
2023-01-21T15:15:33.000Z,89.27
2023-01-21T15:18:26.585Z,53.97
2023-01-21T15:20:58.639Z,64.77
2023-01-21T15:23:41.096Z,23.67
2023-01-21T15:26:33.294Z,29.90
2023-01-21T15:29:36.851Z,27.00
2023-01-21T15:32:29.755Z,25.47
2023-01-21T15:35:01.865Z,37.77
2023-01-21T15:37:37.673Z,21.80
2023-01-21T15:40:27.963Z,15.33
2023-01-21T15:43:05.248Z,22.13
2023-01-21T15:45:42.334Z,16.80
2023-01-21T15:48:58.710Z,19.47
2023-01-21T15:51:38.618Z,12.53
2023-01-21T15:54:31.586Z,14.93
2023-01-21T15:57:16.113Z,11.50
2023-01-21T16:00:13.489Z,14.90
2023-01-21T16:02:52.449Z,17.70
2023-01-21T16:05:30.287Z,17.03
2023-01-21T16:08:12.179Z,17.90
2023-01-21T16:10:55.961Z,14.53
2023-01-21T16:13:35.045Z,12.67
2023-01-21T16:16:14.933Z,15.43
2023-01-21T16:18:54.360Z,14.73
2023-01-21T16:21:28.917Z,15.10
2023-01-21T16:24:01.742Z,14.70
2023-01-21T16:26:33.329Z,17.57
2023-01-21T16:29:02.078Z,11.33
2023-01-21T16:31:30.897Z,14.53
2023-01-21T16:33:59.652Z,15.57
2023-01-21T16:36:28.387Z,15.13
2023-01-21T16:38:57.307Z,18.17
2023-01-21T16:41:27.795Z,16.70
2023-01-21T16:44:00.879Z,15.50
2023-01-21T16:46:34.848Z,14.03
2023-01-21T16:49:05.769Z,17.13
2023-01-21T16:51:37.225Z,15.90
2023-01-21T16:54:27.124Z,15.40
2023-01-21T16:56:58.975Z,18.27
2023-01-21T16:59:31.650Z,18.17
2023-01-21T17:02:02.075Z,15.53
2023-01-21T17:04:31.607Z,14.07
2023-01-21T17:07:01.599Z,16.10
2023-01-21T17:09:34.751Z,17.53
2023-01-21T17:12:07.278Z,19.03
2023-01-21T17:14:38.723Z,22.00
2023-01-21T17:17:10.063Z,20.90
2023-01-21T17:19:43.807Z,18.87
2023-01-21T17:22:16.013Z,18.67
2023-01-21T17:25:02.231Z,17.57
2023-01-21T17:27:33.400Z,20.67
2023-01-21T17:30:27.478Z,18.20
2023-01-21T17:32:57.962Z,14.97
2023-01-21T17:35:28.513Z,14.73
2023-01-21T17:37:59.538Z,16.27
2023-01-21T17:40:32.313Z,17.13
2023-01-21T17:43:09.980Z,17.80
2023-01-21T17:45:45.990Z,16.33
2023-01-21T17:48:27.989Z,21.00
2023-01-21T17:51:04.566Z,22.03
2023-01-21T17:53:33.649Z,17.37
2023-01-21T17:56:05.633Z,22.47
2023-01-21T17:58:49.462Z,20.93
2023-01-21T18:01:22.254Z,15.87
2023-01-21T18:03:51.426Z,16.97
2023-01-21T18:06:23.661Z,18.77
2023-01-21T18:08:52.922Z,16.30
2023-01-21T18:11:22.233Z,17.20
2023-01-21T18:13:52.640Z,18.97
2023-01-21T18:16:23.299Z,15.07
2023-01-21T18:18:54.296Z,15.70
2023-01-21T18:21:23.748Z,15.80
2023-01-21T18:23:52.590Z,20.53
2023-01-21T18:26:31.180Z,18.90
2023-01-21T18:29:00.193Z,23.93
2023-01-21T18:31:30.361Z,21.63
2023-01-21T18:33:59.433Z,21.27
2023-01-21T18:36:28.422Z,23.23
2023-01-21T18:38:57.425Z,28.27
2023-01-21T18:41:28.098Z,18.13
2023-01-21T18:43:57.273Z,16.53
2023-01-21T18:46:26.639Z,18.90
2023-01-21T18:48:56.826Z,18.80
2023-01-21T18:51:26.379Z,20.70
2023-01-21T18:53:55.455Z,21.00
2023-01-21T18:56:24.330Z,22.50
2023-01-21T18:58:52.991Z,21.77
2023-01-21T19:01:23.919Z,21.30
2023-01-21T19:03:55.976Z,18.67
2023-01-21T19:06:26.604Z,20.17
2023-01-21T19:08:56.070Z,18.70
2023-01-21T19:11:24.719Z,20.83
2023-01-21T19:13:53.441Z,18.97
2023-01-21T19:16:22.985Z,18.63
2023-01-21T19:18:52.153Z,22.20
2023-01-21T19:21:22.360Z,18.20
2023-01-21T19:23:51.194Z,18.53
2023-01-21T19:26:20.326Z,17.80
2023-01-21T19:28:49.047Z,16.73
2023-01-21T19:31:18.190Z,21.47
2023-01-21T19:33:47.275Z,19.83
2023-01-21T19:36:20.491Z,17.70
2023-01-21T19:38:55.764Z,18.17
2023-01-21T19:41:24.925Z,20.60
2023-01-21T19:43:53.641Z,20.03
2023-01-21T19:46:24.272Z,17.27
2023-01-21T19:48:53.818Z,20.13
2023-01-21T19:51:22.842Z,19.97
2023-01-21T19:53:55.155Z,19.67
2023-01-21T19:56:25.270Z,16.13
2023-01-21T19:58:54.570Z,21.43
2023-01-21T20:01:23.869Z,19.50
2023-01-21T20:04:00.030Z,17.27
2023-01-21T20:06:43.247Z,17.20
2023-01-21T20:09:19.151Z,19.60
2023-01-21T20:11:47.885Z,30.97
2023-01-21T20:14:16.489Z,21.00
2023-01-21T20:16:50.029Z,17.47
2023-01-21T20:19:19.787Z,18.70
2023-01-21T20:22:01.346Z,20.93
2023-01-21T20:24:33.995Z,18.80
2023-01-21T20:27:06.460Z,18.87
2023-01-21T20:29:44.462Z,19.00
2023-01-21T20:32:13.377Z,20.13
2023-01-21T20:34:42.230Z,16.33
2023-01-21T20:37:14.732Z,16.80
2023-01-21T20:39:45.001Z,15.97
2023-01-21T20:42:15.233Z,18.17
2023-01-21T20:44:44.803Z,18.10
2023-01-21T20:47:16.685Z,16.83
2023-01-21T20:49:45.864Z,20.17
2023-01-21T20:52:15.073Z,26.07
2023-01-21T20:54:45.438Z,18.77
2023-01-21T20:57:14.983Z,20.47
2023-01-21T20:59:43.619Z,21.83
2023-01-21T21:02:12.906Z,19.13
2023-01-21T21:04:41.790Z,21.53
2023-01-21T21:07:15.859Z,33.40
2023-01-21T21:09:45.900Z,49.30
2023-01-21T21:12:14.841Z,41.83
2023-01-21T21:14:43.825Z,53.20
2023-01-21T21:17:13.566Z,40.13
2023-01-21T21:19:42.462Z,22.80
2023-01-21T21:22:12.139Z,31.83
2023-01-21T21:24:41.196Z,21.13
2023-01-21T21:27:13.402Z,23.30
2023-01-21T21:29:42.571Z,19.83
2023-01-21T21:32:18.267Z,20.10
2023-01-21T21:34:50.954Z,19.07
2023-01-21T21:37:20.151Z,19.30
2023-01-21T21:39:49.072Z,18.27
2023-01-21T21:42:36.743Z,18.37
2023-01-21T21:45:06.363Z,18.77
2023-01-21T21:47:52.685Z,18.07
2023-01-21T21:50:21.307Z,17.17
2023-01-21T21:52:50.381Z,19.27
2023-01-21T21:55:19.712Z,17.77
2023-01-21T21:57:50.184Z,17.37
2023-01-21T22:00:20.588Z,18.57
2023-01-21T22:02:49.324Z,20.93
2023-01-21T22:05:18.310Z,17.47
2023-01-21T22:07:46.972Z,19.10
2023-01-21T22:10:15.495Z,20.70
2023-01-21T22:12:44.161Z,19.80
2023-01-21T22:15:14.464Z,20.07
2023-01-21T22:17:43.543Z,23.13
2023-01-21T22:20:13.238Z,25.67
2023-01-21T22:22:42.172Z,34.60
2023-01-21T22:25:12.034Z,23.77
2023-01-21T22:27:40.872Z,22.10
2023-01-21T22:30:10.979Z,24.17
2023-01-21T22:32:41.353Z,21.53
2023-01-21T22:35:10.481Z,21.40
2023-01-21T22:37:39.237Z,20.90
2023-01-21T22:40:09.854Z,19.53
2023-01-21T22:42:38.430Z,20.07
2023-01-21T22:45:08.227Z,22.23
2023-01-21T22:47:39.910Z,17.33
2023-01-21T22:50:09.822Z,19.90
2023-01-21T22:52:38.513Z,21.23
2023-01-21T22:55:08.179Z,18.27
2023-01-21T22:57:36.883Z,18.57
2023-01-21T23:00:06.916Z,20.90
2023-01-21T23:02:35.846Z,21.33
2023-01-21T23:05:06.310Z,17.30
2023-01-21T23:07:35.012Z,20.10
2023-01-21T23:10:03.924Z,17.87
2023-01-21T23:12:32.505Z,17.70
2023-01-21T23:15:01.294Z,19.83
2023-01-21T23:17:29.868Z,18.33
2023-01-21T23:19:58.544Z,18.07
2023-01-21T23:22:28.584Z,23.30
2023-01-21T23:24:57.170Z,18.50
2023-01-21T23:27:25.876Z,21.23
2023-01-21T23:29:54.568Z,21.77
2023-01-21T23:32:23.200Z,21.10
2023-01-21T23:34:52.141Z,19.40
2023-01-21T23:37:20.805Z,19.70
2023-01-21T23:39:51.433Z,20.47
2023-01-21T23:42:22.520Z,20.67
2023-01-21T23:44:51.140Z,22.10
2023-01-21T23:47:20.847Z,21.63
2023-01-21T23:49:49.414Z,19.37
2023-01-21T23:52:18.236Z,20.53
2023-01-21T23:54:46.921Z,21.00
2023-01-21T23:57:16.999Z,16.80
2023-01-21T23:59:46.002Z,20.90
